ANA974 ZSPD-RJBB
Flight info
| Callsign | ANA974 |
|---|---|
| Flight time | 1h 25m |
| Altitude | 39000 |
| Route | LAM82D LAMEN/N0499F390 A593 SADLI Y590 BEDAR Y591 FUE Y35 IGLEV |
| Aircraft | B77W/H-SDE1E2E3FGHIJ2J3J4J5M1RWXY/LB1D1 |
Departure
| Time | 2026-05-05 03:36 |
|---|---|
| Airport | Shanghai Pudong International Airport (ZSPD) |
Arrival
| Time | 2026-05-05 05:02 |
|---|---|
| Airport | Kansai International Airport (RJBB) |
| Time | Latitude | Longitude | Altitude | Speed | Heading |
|---|---|---|---|---|---|
| 2026-05-05 03:11 | 31.15098 | 121.80838 | 28 ft | 0 kts | 252° |
| 2026-05-05 03:27 | 31.15098 | 121.80839 | 28 ft | 1 kts | 252° |
| 2026-05-05 03:28 | 31.15103 | 121.80857 | 28 ft | 3 kts | 252° |
| 2026-05-05 03:28 | 31.15109 | 121.80879 | 28 ft | 3 kts | 252° |
| 2026-05-05 03:28 | 31.15114 | 121.80896 | 28 ft | 2 kts | 252° |
| 2026-05-05 03:28 | 31.15118 | 121.80916 | 28 ft | 3 kts | 288° |
| 2026-05-05 03:29 | 31.15108 | 121.80930 | 28 ft | 3 kts | 338° |
| 2026-05-05 03:29 | 31.15090 | 121.80937 | 28 ft | 2 kts | 343° |
| 2026-05-05 03:29 | 31.15085 | 121.80939 | 28 ft | 2 kts | 342° |
| 2026-05-05 03:32 | 31.15088 | 121.80938 | 28 ft | 4 kts | 342° |
| 2026-05-05 03:32 | 31.15182 | 121.80903 | 28 ft | 18 kts | 342° |
| 2026-05-05 03:32 | 31.15301 | 121.80858 | 28 ft | 18 kts | 342° |
| 2026-05-05 03:33 | 31.15421 | 121.80812 | 28 ft | 18 kts | 342° |
| 2026-05-05 03:33 | 31.15540 | 121.80767 | 28 ft | 18 kts | 342° |
| 2026-05-05 03:33 | 31.15659 | 121.80723 | 28 ft | 18 kts | 342° |
| 2026-05-05 03:33 | 31.15754 | 121.80716 | 28 ft | 12 kts | 46° |
| 2026-05-05 03:34 | 31.15781 | 121.80809 | 27 ft | 12 kts | 72° |
| 2026-05-05 03:34 | 31.15806 | 121.80903 | 27 ft | 12 kts | 73° |
| 2026-05-05 03:34 | 31.15831 | 121.80989 | 27 ft | 11 kts | 72° |
| 2026-05-05 03:34 | 31.15849 | 121.81055 | 27 ft | 8 kts | 72° |
| 2026-05-05 03:35 | 31.15867 | 121.81120 | 26 ft | 9 kts | 72° |
| 2026-05-05 03:35 | 31.15855 | 121.81190 | 26 ft | 10 kts | 136° |
| 2026-05-05 03:35 | 31.15789 | 121.81221 | 26 ft | 16 kts | 162° |
| 2026-05-05 03:35 | 31.15540 | 121.81315 | 27 ft | 69 kts | 162° |
| 2026-05-05 03:36 | 31.14799 | 121.81594 | 27 ft | 151 kts | 163° |
| 2026-05-05 03:36 | 31.13650 | 121.82035 | 415 ft | 183 kts | 162° |
| 2026-05-05 03:36 | 31.12459 | 121.82531 | 1476 ft | 177 kts | 160° |
| 2026-05-05 03:36 | 31.11328 | 121.83076 | 2635 ft | 177 kts | 157° |
| 2026-05-05 03:37 | 31.10148 | 121.83722 | 3354 ft | 200 kts | 156° |
| 2026-05-05 03:37 | 31.08803 | 121.84552 | 3737 ft | 240 kts | 152° |
| 2026-05-05 03:37 | 31.07320 | 121.85607 | 4446 ft | 254 kts | 148° |
| 2026-05-05 03:37 | 31.05844 | 121.86801 | 4922 ft | 262 kts | 146° |
| 2026-05-05 03:38 | 31.04351 | 121.88040 | 5724 ft | 266 kts | 145° |
| 2026-05-05 03:38 | 31.02826 | 121.89322 | 6792 ft | 274 kts | 144° |
| 2026-05-05 03:38 | 31.01266 | 121.90640 | 7899 ft | 280 kts | 143° |
| 2026-05-05 03:38 | 30.99761 | 121.92124 | 8965 ft | 286 kts | 137° |
| 2026-05-05 03:39 | 30.98288 | 121.93732 | 10034 ft | 292 kts | 137° |
| 2026-05-05 03:39 | 30.96771 | 121.95379 | 10869 ft | 309 kts | 138° |
| 2026-05-05 03:39 | 30.95130 | 121.97177 | 11161 ft | 338 kts | 134° |
| 2026-05-05 03:39 | 30.93866 | 121.99612 | 11445 ft | 369 kts | 106° |
| 2026-05-05 03:40 | 30.93696 | 122.02622 | 12297 ft | 381 kts | 80° |
| 2026-05-05 03:40 | 30.94439 | 122.05593 | 13128 ft | 387 kts | 70° |
| 2026-05-05 03:40 | 30.95331 | 122.08557 | 14039 ft | 397 kts | 70° |
| 2026-05-05 03:40 | 30.96246 | 122.11625 | 15065 ft | 404 kts | 71° |
| 2026-05-05 03:41 | 30.97150 | 122.14750 | 16064 ft | 410 kts | 71° |
| 2026-05-05 03:41 | 30.98048 | 122.17940 | 16996 ft | 418 kts | 72° |
| 2026-05-05 03:41 | 30.98951 | 122.21195 | 17878 ft | 426 kts | 72° |
| 2026-05-05 03:41 | 30.99848 | 122.24521 | 18740 ft | 432 kts | 75° |
| 2026-05-05 03:42 | 31.00255 | 122.28012 | 19434 ft | 441 kts | 91° |
| 2026-05-05 03:42 | 31.00137 | 122.31610 | 20229 ft | 447 kts | 94° |
| 2026-05-05 03:42 | 31.00018 | 122.35261 | 21053 ft | 454 kts | 93° |
| 2026-05-05 03:42 | 30.99979 | 122.38965 | 21830 ft | 461 kts | 92° |
| 2026-05-05 03:43 | 30.99982 | 122.42741 | 22541 ft | 469 kts | 92° |
| 2026-05-05 03:43 | 30.99995 | 122.46580 | 23241 ft | 476 kts | 92° |
| 2026-05-05 03:43 | 31.00007 | 122.50466 | 23934 ft | 483 kts | 92° |
| 2026-05-05 03:43 | 31.00015 | 122.54408 | 24624 ft | 489 kts | 92° |
| 2026-05-05 03:44 | 31.00022 | 122.58404 | 25228 ft | 497 kts | 93° |
| 2026-05-05 03:44 | 31.00025 | 122.62470 | 25785 ft | 505 kts | 93° |
| 2026-05-05 03:44 | 31.00026 | 122.65191 | 26165 ft | 509 kts | 93° |
| 2026-05-05 03:44 | 31.00027 | 122.70700 | 26932 ft | 517 kts | 93° |
| 2026-05-05 03:45 | 31.00028 | 122.74917 | 27474 ft | 523 kts | 93° |
| 2026-05-05 03:45 | 31.00027 | 122.79188 | 27973 ft | 530 kts | 94° |
| 2026-05-05 03:45 | 31.00026 | 122.83515 | 28462 ft | 536 kts | 94° |
| 2026-05-05 03:45 | 31.00023 | 122.86460 | 28782 ft | 540 kts | 94° |
| 2026-05-05 03:46 | 31.00017 | 122.90800 | 29250 ft | 545 kts | 94° |
| 2026-05-05 03:46 | 31.00097 | 122.96748 | 29787 ft | 554 kts | 87° |
| 2026-05-05 03:46 | 31.00557 | 122.99697 | 29959 ft | 563 kts | 76° |
| 2026-05-05 03:46 | 31.02079 | 123.03934 | 30317 ft | 570 kts | 57° |
| 2026-05-05 03:47 | 31.04383 | 123.07673 | 30743 ft | 567 kts | 51° |
| 2026-05-05 03:47 | 31.06793 | 123.11349 | 31097 ft | 572 kts | 51° |
| 2026-05-05 03:47 | 31.09188 | 123.15059 | 31586 ft | 572 kts | 51° |
| 2026-05-05 03:47 | 31.11552 | 123.18806 | 32163 ft | 571 kts | 52° |
| 2026-05-05 03:48 | 31.13874 | 123.22562 | 32737 ft | 569 kts | 53° |
| 2026-05-05 03:48 | 31.16166 | 123.26319 | 33276 ft | 568 kts | 53° |
| 2026-05-05 03:48 | 31.18452 | 123.30083 | 33737 ft | 568 kts | 53° |
| 2026-05-05 03:48 | 31.20712 | 123.33808 | 34201 ft | 568 kts | 53° |
| 2026-05-05 03:49 | 31.22995 | 123.37565 | 34679 ft | 567 kts | 53° |
| 2026-05-05 03:49 | 31.25279 | 123.41320 | 35156 ft | 566 kts | 53° |
| 2026-05-05 03:49 | 31.27555 | 123.45060 | 35639 ft | 564 kts | 53° |
| 2026-05-05 03:49 | 31.29830 | 123.48799 | 36055 ft | 564 kts | 52° |
| 2026-05-05 03:50 | 31.32103 | 123.52540 | 36423 ft | 565 kts | 52° |
| 2026-05-05 03:50 | 31.34381 | 123.56290 | 36774 ft | 566 kts | 52° |
| 2026-05-05 03:50 | 31.36669 | 123.60036 | 37162 ft | 565 kts | 52° |
| 2026-05-05 03:50 | 31.38948 | 123.63760 | 37680 ft | 560 kts | 52° |
| 2026-05-05 03:51 | 31.41205 | 123.67449 | 38239 ft | 555 kts | 52° |
| 2026-05-05 03:51 | 31.43451 | 123.71122 | 38563 ft | 556 kts | 52° |
| 2026-05-05 03:51 | 31.45703 | 123.74810 | 38775 ft | 558 kts | 52° |
| 2026-05-05 03:51 | 31.47962 | 123.78518 | 38972 ft | 560 kts | 52° |
| 2026-05-05 03:52 | 31.52522 | 123.86012 | 39101 ft | 568 kts | 52° |
| 2026-05-05 03:52 | 31.57138 | 123.93621 | 39116 ft | 576 kts | 52° |
| 2026-05-05 03:53 | 31.61518 | 124.01555 | 39089 ft | 584 kts | 67° |
| 2026-05-05 03:53 | 31.63735 | 124.10681 | 39111 ft | 583 kts | 78° |
| 2026-05-05 03:54 | 31.65541 | 124.19969 | 39116 ft | 585 kts | 78° |
| 2026-05-05 03:54 | 31.67491 | 124.29261 | 39110 ft | 587 kts | 77° |
| 2026-05-05 03:55 | 31.69540 | 124.38475 | 39113 ft | 586 kts | 76° |
| 2026-05-05 03:55 | 31.71608 | 124.47724 | 39114 ft | 585 kts | 77° |
| 2026-05-05 03:56 | 31.73649 | 124.56970 | 39119 ft | 584 kts | 77° |
| 2026-05-05 03:56 | 31.75668 | 124.66209 | 39124 ft | 583 kts | 77° |
| 2026-05-05 03:57 | 31.77682 | 124.75454 | 39128 ft | 583 kts | 77° |
| 2026-05-05 03:57 | 31.79690 | 124.84694 | 39129 ft | 584 kts | 77° |
| 2026-05-05 03:58 | 31.81595 | 124.93963 | 39123 ft | 582 kts | 83° |
| 2026-05-05 03:58 | 31.82104 | 125.03411 | 39146 ft | 577 kts | 96° |
| 2026-05-05 03:59 | 31.81105 | 125.12683 | 39144 ft | 569 kts | 107° |
| 2026-05-05 03:59 | 31.79498 | 125.21812 | 39141 ft | 571 kts | 107° |
| 2026-05-05 04:00 | 31.77937 | 125.30929 | 39141 ft | 574 kts | 107° |
| 2026-05-05 04:00 | 31.76425 | 125.40149 | 39141 ft | 575 kts | 107° |
| 2026-05-05 04:01 | 31.74912 | 125.49392 | 39154 ft | 576 kts | 107° |
| 2026-05-05 04:01 | 31.73400 | 125.58647 | 39141 ft | 578 kts | 104° |
| 2026-05-05 04:02 | 31.73047 | 125.68153 | 39147 ft | 588 kts | 89° |
| 2026-05-05 04:02 | 31.74363 | 125.77647 | 39147 ft | 591 kts | 76° |
| 2026-05-05 04:03 | 31.76590 | 125.86950 | 39148 ft | 592 kts | 75° |
| 2026-05-05 04:03 | 31.78671 | 125.96305 | 39154 ft | 592 kts | 77° |
| 2026-05-05 04:04 | 31.80703 | 126.05686 | 39150 ft | 592 kts | 76° |
| 2026-05-05 04:04 | 31.82731 | 126.14996 | 39154 ft | 591 kts | 76° |
| 2026-05-05 04:05 | 31.84769 | 126.24359 | 39156 ft | 591 kts | 76° |
| 2026-05-05 04:05 | 31.86798 | 126.33733 | 39158 ft | 591 kts | 77° |
| 2026-05-05 04:06 | 31.88822 | 126.43105 | 39160 ft | 591 kts | 77° |
| 2026-05-05 04:06 | 31.90843 | 126.52485 | 39163 ft | 592 kts | 76° |
| 2026-05-05 04:07 | 31.92916 | 126.61862 | 39156 ft | 592 kts | 76° |
| 2026-05-05 04:07 | 31.94999 | 126.71249 | 39154 ft | 593 kts | 76° |
| 2026-05-05 04:08 | 31.97067 | 126.80660 | 39159 ft | 593 kts | 77° |
| 2026-05-05 04:08 | 31.99121 | 126.90071 | 39155 ft | 593 kts | 77° |
| 2026-05-05 04:09 | 32.01170 | 126.99496 | 39159 ft | 593 kts | 77° |
| 2026-05-05 04:09 | 32.03220 | 127.08900 | 39157 ft | 592 kts | 75° |
| 2026-05-05 04:10 | 32.05967 | 127.17981 | 39156 ft | 591 kts | 65° |
| 2026-05-05 04:10 | 32.09439 | 127.26766 | 39155 ft | 591 kts | 64° |
| 2026-05-05 04:11 | 32.12834 | 127.35600 | 39160 ft | 591 kts | 65° |
| 2026-05-05 04:11 | 32.16159 | 127.44485 | 39158 ft | 591 kts | 66° |
| 2026-05-05 04:12 | 32.19477 | 127.53369 | 39155 ft | 592 kts | 66° |
| 2026-05-05 04:12 | 32.22799 | 127.62273 | 39154 ft | 593 kts | 66° |
| 2026-05-05 04:13 | 32.26129 | 127.71219 | 39163 ft | 595 kts | 66° |
| 2026-05-05 04:13 | 32.29456 | 127.80178 | 39159 ft | 596 kts | 66° |
| 2026-05-05 04:14 | 32.32782 | 127.89158 | 39155 ft | 596 kts | 66° |
| 2026-05-05 04:14 | 32.36101 | 127.98145 | 39159 ft | 597 kts | 66° |
| 2026-05-05 04:15 | 32.39400 | 128.07101 | 39155 ft | 597 kts | 66° |
| 2026-05-05 04:15 | 32.42714 | 128.16117 | 39157 ft | 597 kts | 66° |
| 2026-05-05 04:16 | 32.46021 | 128.25139 | 39163 ft | 597 kts | 66° |
| 2026-05-05 04:16 | 32.49315 | 128.34157 | 39160 ft | 596 kts | 66° |
| 2026-05-05 04:17 | 32.52599 | 128.43167 | 39154 ft | 595 kts | 66° |
| 2026-05-05 04:17 | 32.55871 | 128.52170 | 39155 ft | 594 kts | 66° |
| 2026-05-05 04:18 | 32.59136 | 128.61176 | 39153 ft | 594 kts | 66° |
| 2026-05-05 04:18 | 32.62385 | 128.70165 | 39158 ft | 593 kts | 66° |
| 2026-05-05 04:19 | 32.65626 | 128.79159 | 39143 ft | 593 kts | 66° |
| 2026-05-05 04:19 | 32.68772 | 128.88190 | 39154 ft | 592 kts | 69° |
| 2026-05-05 04:20 | 32.71546 | 128.97324 | 39155 ft | 592 kts | 71° |
| 2026-05-05 04:20 | 32.74271 | 129.06549 | 39155 ft | 592 kts | 71° |
| 2026-05-05 04:21 | 32.77057 | 129.15760 | 39159 ft | 593 kts | 70° |
| 2026-05-05 04:21 | 32.79876 | 129.24961 | 39157 ft | 593 kts | 70° |
| 2026-05-05 04:22 | 32.82697 | 129.34183 | 39158 ft | 593 kts | 70° |
| 2026-05-05 04:22 | 32.85503 | 129.43413 | 39158 ft | 593 kts | 70° |
| 2026-05-05 04:23 | 32.88298 | 129.52651 | 39154 ft | 593 kts | 70° |
| 2026-05-05 04:23 | 32.91093 | 129.61899 | 39156 ft | 593 kts | 70° |
| 2026-05-05 04:24 | 32.93878 | 129.71145 | 39163 ft | 593 kts | 70° |
| 2026-05-05 04:25 | 32.98037 | 129.85028 | 39164 ft | 593 kts | 71° |
| 2026-05-05 04:25 | 33.00796 | 129.94274 | 39163 ft | 593 kts | 71° |
| 2026-05-05 04:26 | 33.03554 | 130.03537 | 39150 ft | 593 kts | 71° |
| 2026-05-05 04:26 | 33.06307 | 130.12807 | 39152 ft | 593 kts | 71° |
| 2026-05-05 04:27 | 33.09050 | 130.22080 | 39162 ft | 592 kts | 71° |
| 2026-05-05 04:27 | 33.11790 | 130.31349 | 39159 ft | 593 kts | 71° |
| 2026-05-05 04:28 | 33.14529 | 130.40625 | 39161 ft | 593 kts | 71° |
| 2026-05-05 04:28 | 33.17260 | 130.49912 | 39155 ft | 593 kts | 71° |
| 2026-05-05 04:29 | 33.19964 | 130.59139 | 39156 ft | 593 kts | 71° |
| 2026-05-05 04:29 | 33.22680 | 130.68442 | 39155 ft | 593 kts | 71° |
| 2026-05-05 04:30 | 33.25392 | 130.77755 | 39145 ft | 593 kts | 71° |
| 2026-05-05 04:30 | 33.28090 | 130.87079 | 39157 ft | 594 kts | 71° |
| 2026-05-05 04:31 | 33.30340 | 130.94899 | 39129 ft | 594 kts | 71° |
| 2026-05-05 04:31 | 33.33018 | 131.04230 | 39143 ft | 593 kts | 71° |
| 2026-05-05 04:32 | 33.35668 | 131.13495 | 39152 ft | 592 kts | 71° |
| 2026-05-05 04:32 | 33.38332 | 131.22831 | 39153 ft | 592 kts | 71° |
| 2026-05-05 04:33 | 33.40987 | 131.32163 | 39169 ft | 592 kts | 71° |
| 2026-05-05 04:33 | 33.43633 | 131.41489 | 39178 ft | 592 kts | 72° |
| 2026-05-05 04:34 | 33.46277 | 131.50834 | 39177 ft | 592 kts | 72° |
| 2026-05-05 04:34 | 33.48913 | 131.60191 | 39174 ft | 593 kts | 71° |
| 2026-05-05 04:35 | 33.51553 | 131.69574 | 39181 ft | 594 kts | 71° |
| 2026-05-05 04:35 | 33.54184 | 131.78961 | 39175 ft | 593 kts | 72° |
| 2026-05-05 04:36 | 33.56800 | 131.88330 | 39185 ft | 593 kts | 72° |
| 2026-05-05 04:36 | 33.59389 | 131.97639 | 39180 ft | 592 kts | 72° |
| 2026-05-05 04:37 | 33.61986 | 132.07002 | 39196 ft | 592 kts | 72° |
| 2026-05-05 04:37 | 33.64581 | 132.16384 | 39181 ft | 592 kts | 72° |
| 2026-05-05 04:38 | 33.67165 | 132.25765 | 39188 ft | 592 kts | 72° |
| 2026-05-05 04:38 | 33.69745 | 132.35164 | 39179 ft | 593 kts | 72° |
| 2026-05-05 04:39 | 33.72319 | 132.44570 | 39181 ft | 593 kts | 72° |
| 2026-05-05 04:39 | 33.74875 | 132.53937 | 39165 ft | 582 kts | 72° |
| 2026-05-05 04:39 | 33.76120 | 132.58511 | 39035 ft | 571 kts | 72° |
| 2026-05-05 04:40 | 33.77344 | 132.63021 | 38606 ft | 565 kts | 72° |
| 2026-05-05 04:40 | 33.78563 | 132.67514 | 37895 ft | 567 kts | 72° |
| 2026-05-05 04:40 | 33.79787 | 132.72036 | 37076 ft | 571 kts | 72° |
| 2026-05-05 04:40 | 33.81016 | 132.76588 | 36270 ft | 573 kts | 73° |
| 2026-05-05 04:41 | 33.82234 | 132.81105 | 35482 ft | 576 kts | 73° |
| 2026-05-05 04:41 | 33.83471 | 132.85691 | 34786 ft | 576 kts | 73° |
| 2026-05-05 04:41 | 33.84707 | 132.90292 | 34145 ft | 576 kts | 73° |
| 2026-05-05 04:41 | 33.85922 | 132.94869 | 33700 ft | 570 kts | 74° |
| 2026-05-05 04:42 | 33.87032 | 132.99416 | 33249 ft | 565 kts | 76° |
| 2026-05-05 04:42 | 33.88070 | 133.03965 | 32759 ft | 561 kts | 76° |
| 2026-05-05 04:42 | 33.89079 | 133.08477 | 32291 ft | 556 kts | 76° |
| 2026-05-05 04:42 | 33.90084 | 133.12956 | 31834 ft | 551 kts | 76° |
| 2026-05-05 04:43 | 33.91094 | 133.17397 | 31391 ft | 546 kts | 76° |
| 2026-05-05 04:43 | 33.92097 | 133.21792 | 30927 ft | 542 kts | 76° |
| 2026-05-05 04:43 | 33.93109 | 133.26154 | 30497 ft | 539 kts | 75° |
| 2026-05-05 04:43 | 33.94099 | 133.30428 | 30123 ft | 534 kts | 75° |
| 2026-05-05 04:44 | 33.95088 | 133.34726 | 29678 ft | 530 kts | 75° |
| 2026-05-05 04:44 | 33.96068 | 133.38977 | 29232 ft | 524 kts | 75° |
| 2026-05-05 04:44 | 33.97037 | 133.43200 | 28815 ft | 520 kts | 75° |
| 2026-05-05 04:44 | 33.97988 | 133.47366 | 28444 ft | 512 kts | 75° |
| 2026-05-05 04:45 | 33.98930 | 133.51490 | 28104 ft | 507 kts | 75° |
| 2026-05-05 04:45 | 33.99858 | 133.55560 | 27758 ft | 500 kts | 75° |
| 2026-05-05 04:45 | 34.00772 | 133.59591 | 27368 ft | 497 kts | 75° |
| 2026-05-05 04:45 | 34.01676 | 133.63578 | 27137 ft | 489 kts | 75° |
| 2026-05-05 04:46 | 34.02574 | 133.67495 | 26809 ft | 481 kts | 75° |
| 2026-05-05 04:46 | 34.03461 | 133.71386 | 26310 ft | 479 kts | 75° |
| 2026-05-05 04:46 | 34.04336 | 133.75241 | 25965 ft | 473 kts | 75° |
| 2026-05-05 04:46 | 34.05164 | 133.79052 | 25653 ft | 466 kts | 77° |
| 2026-05-05 04:47 | 34.05741 | 133.82878 | 25258 ft | 461 kts | 84° |
| 2026-05-05 04:47 | 34.06002 | 133.86715 | 24873 ft | 455 kts | 87° |
| 2026-05-05 04:47 | 34.06216 | 133.90500 | 24517 ft | 450 kts | 87° |
| 2026-05-05 04:47 | 34.06445 | 133.94238 | 24179 ft | 445 kts | 86° |
| 2026-05-05 04:48 | 34.06690 | 133.97934 | 23861 ft | 439 kts | 86° |
| 2026-05-05 04:48 | 34.06931 | 134.01541 | 23481 ft | 435 kts | 86° |
| 2026-05-05 04:48 | 34.07180 | 134.05159 | 23087 ft | 431 kts | 86° |
| 2026-05-05 04:48 | 34.07428 | 134.08749 | 22671 ft | 428 kts | 86° |
| 2026-05-05 04:49 | 34.07673 | 134.12308 | 22353 ft | 423 kts | 86° |
| 2026-05-05 04:49 | 34.07910 | 134.15823 | 21999 ft | 418 kts | 86° |
| 2026-05-05 04:49 | 34.08139 | 134.19304 | 21606 ft | 415 kts | 86° |
| 2026-05-05 04:49 | 34.08384 | 134.22752 | 21248 ft | 411 kts | 84° |
| 2026-05-05 04:50 | 34.08772 | 134.26155 | 20881 ft | 407 kts | 81° |
| 2026-05-05 04:50 | 34.09242 | 134.29513 | 20519 ft | 403 kts | 80° |
| 2026-05-05 04:50 | 34.09728 | 134.32835 | 20173 ft | 400 kts | 80° |
| 2026-05-05 04:50 | 34.10202 | 134.36119 | 19841 ft | 395 kts | 80° |
| 2026-05-05 04:51 | 34.10661 | 134.39366 | 19472 ft | 392 kts | 81° |
| 2026-05-05 04:51 | 34.11105 | 134.42599 | 19119 ft | 388 kts | 81° |
| 2026-05-05 04:51 | 34.11537 | 134.45798 | 18796 ft | 384 kts | 81° |
| 2026-05-05 04:51 | 34.11953 | 134.48905 | 18676 ft | 374 kts | 81° |
| 2026-05-05 04:52 | 34.12359 | 134.51952 | 18605 ft | 362 kts | 81° |
| 2026-05-05 04:52 | 34.12752 | 134.54914 | 18526 ft | 352 kts | 81° |
| 2026-05-05 04:52 | 34.13134 | 134.57789 | 18429 ft | 343 kts | 81° |
| 2026-05-05 04:52 | 34.13506 | 134.60603 | 18277 ft | 336 kts | 81° |
| 2026-05-05 04:53 | 34.13873 | 134.63367 | 18047 ft | 332 kts | 81° |
| 2026-05-05 04:53 | 34.14236 | 134.66113 | 17738 ft | 330 kts | 81° |
| 2026-05-05 04:53 | 34.14595 | 134.68843 | 17437 ft | 328 kts | 81° |
| 2026-05-05 04:53 | 34.14970 | 134.71551 | 17120 ft | 324 kts | 77° |
| 2026-05-05 04:54 | 34.15751 | 134.74038 | 16515 ft | 314 kts | 60° |
| 2026-05-05 04:54 | 34.16827 | 134.76319 | 15740 ft | 311 kts | 58° |
| 2026-05-05 04:54 | 34.17881 | 134.78526 | 15371 ft | 295 kts | 59° |
| 2026-05-05 04:54 | 34.18854 | 134.80596 | 15167 ft | 274 kts | 59° |
| 2026-05-05 04:55 | 34.19770 | 134.82572 | 14651 ft | 267 kts | 59° |
| 2026-05-05 04:55 | 34.20666 | 134.84525 | 14022 ft | 264 kts | 59° |
| 2026-05-05 04:55 | 34.21549 | 134.86460 | 13402 ft | 262 kts | 59° |
| 2026-05-05 04:55 | 34.22421 | 134.88379 | 12736 ft | 260 kts | 59° |
| 2026-05-05 04:56 | 34.23293 | 134.90305 | 12003 ft | 262 kts | 59° |
| 2026-05-05 04:56 | 34.24170 | 134.92245 | 11270 ft | 263 kts | 59° |
| 2026-05-05 04:56 | 34.25038 | 134.94160 | 10545 ft | 263 kts | 58° |
| 2026-05-05 04:56 | 34.26097 | 134.95957 | 9797 ft | 262 kts | 49° |
| 2026-05-05 04:57 | 34.27282 | 134.97638 | 9054 ft | 263 kts | 49° |
| 2026-05-05 04:57 | 34.28469 | 134.99320 | 8306 ft | 263 kts | 50° |
| 2026-05-05 04:57 | 34.29639 | 135.01013 | 7583 ft | 262 kts | 50° |
| 2026-05-05 04:57 | 34.30797 | 135.02713 | 6843 ft | 261 kts | 50° |
| 2026-05-05 04:58 | 34.31948 | 135.04412 | 6083 ft | 260 kts | 50° |
| 2026-05-05 04:58 | 34.33051 | 135.06138 | 5334 ft | 258 kts | 59° |
| 2026-05-05 04:58 | 34.33695 | 135.08148 | 4594 ft | 256 kts | 73° |
| 2026-05-05 04:58 | 34.34130 | 135.10221 | 3849 ft | 253 kts | 75° |
| 2026-05-05 04:59 | 34.34668 | 135.12225 | 3091 ft | 247 kts | 59° |
| 2026-05-05 04:59 | 34.35636 | 135.13857 | 2334 ft | 231 kts | 51° |
| 2026-05-05 04:59 | 34.36620 | 135.15316 | 1753 ft | 214 kts | 54° |
| 2026-05-05 04:59 | 34.37511 | 135.16663 | 1604 ft | 196 kts | 51° |
| 2026-05-05 05:00 | 34.38322 | 135.17869 | 1510 ft | 175 kts | 49° |
| 2026-05-05 05:00 | 34.39085 | 135.18997 | 1044 ft | 175 kts | 48° |
| 2026-05-05 05:00 | 34.39882 | 135.20125 | 607 ft | 172 kts | 48° |
| 2026-05-05 05:00 | 34.40583 | 135.21211 | 350 ft | 153 kts | 51° |
| 2026-05-05 05:01 | 34.41207 | 135.22156 | 166 ft | 140 kts | 48° |
| 2026-05-05 05:01 | 34.41831 | 135.23071 | 39 ft | 142 kts | 49° |
| 2026-05-05 05:01 | 34.42401 | 135.23915 | 20 ft | 112 kts | 51° |
| 2026-05-05 05:01 | 34.42795 | 135.24502 | 20 ft | 68 kts | 51° |
| 2026-05-05 05:02 | 34.43019 | 135.24793 | 20 ft | 35 kts | 31° |
| 2026-05-05 05:02 | 34.43224 | 135.24903 | 23 ft | 28 kts | 20° |
| 2026-05-05 05:02 | 34.43332 | 135.24932 | 27 ft | 12 kts | 348° |
| 2026-05-05 05:02 | 34.43392 | 135.24886 | 25 ft | 0 kts | 322° |
| 2026-05-05 05:03 | 34.43393 | 135.24885 | 24 ft | 0 kts | 322° |
| 2026-05-05 05:03 | 34.43394 | 135.24885 | 24 ft | 0 kts | 322° |
| 2026-05-05 05:04 | 34.43402 | 135.24877 | 24 ft | 4 kts | 322° |
| 2026-05-05 05:04 | 34.43425 | 135.24837 | 28 ft | 7 kts | 290° |
| 2026-05-05 05:04 | 34.43438 | 135.24781 | 24 ft | 7 kts | 301° |
| 2026-05-05 05:04 | 34.43471 | 135.24746 | 26 ft | 5 kts | 322° |
| 2026-05-05 05:05 | 34.43486 | 135.24731 | 27 ft | 2 kts | 321° |
| 2026-05-05 05:05 | 34.43495 | 135.24723 | 26 ft | 1 kts | 321° |
| 2026-05-05 05:05 | 34.43500 | 135.24718 | 24 ft | 1 kts | 321° |
| 2026-05-05 05:05 | 34.43500 | 135.24717 | 24 ft | 0 kts | 321° |